Bryan's Hourly Summary for Saturday, March 18, 2017
Hour Temp
(f)
RH
(%)
Solar Rad.
(MJ/m2)
Rainfall
(in)
Wind
(mph)
3/18/2017 12:00 AM 67 80 0 0 6.34
3/18/2017 1:00 AM 67 83 0 0 6.3
3/18/2017 2:00 AM 66 84 0 0 4.47
3/18/2017 3:00 AM 65 86 0 0 3.98
3/18/2017 4:00 AM 65 88 0 0 2.97
3/18/2017 5:00 AM 65 89 0 0 1.71
3/18/2017 6:00 AM 64 91 0 0 4.82
3/18/2017 7:00 AM 64 95 0 0 3.74
3/18/2017 8:00 AM 63 96 0.01 0 2.77
3/18/2017 9:00 AM 64 97 0.13 0 1.71
3/18/2017 10:00 AM 65 97 0.43 0 2.02
3/18/2017 11:00 AM 66 91 0.62 0 1.04
3/18/2017 12:00 PM 68 85 1.06 0 3.56
3/18/2017 1:00 PM 71 74 1.78 0 4.52
3/18/2017 2:00 PM 75 61 2.71 0 4.41
3/18/2017 3:00 PM 77 56 2.39 0 4.67
3/18/2017 4:00 PM 79 47 1.8 0 4.26
3/18/2017 5:00 PM 81 43 1.84 0 3.92
3/18/2017 6:00 PM 81 44 1.15 0 4.52
3/18/2017 7:00 PM 80 47 0.51 0 3.76
3/18/2017 8:00 PM 77 53 0.06 0 1.48
3/18/2017 9:00 PM 73 59 0 0 0
3/18/2017 10:00 PM 72 65 0 0 1.58
3/18/2017 11:00 PM 72 69 0 0 5.04
Data Summary 70 74 14.49 0.00 3.48